sensor_id;sensor_type;location;lat;lon;timestamp;pressure;altitude;pressure_sealevel;temperature;humidity
58785;BME280;44557;51.862;19.378;2023-07-22T00:01:31;98561.44;;;20.25;73.87
58785;BME280;44557;51.862;19.378;2023-07-22T00:03:33;98556.59;;;20.36;73.23
58785;BME280;44557;51.862;19.378;2023-07-22T00:05:35;98563.44;;;20.29;73.47
58785;BME280;44557;51.862;19.378;2023-07-22T00:07:36;98562.78;;;20.34;73.12
58785;BME280;44557;51.862;19.378;2023-07-22T00:09:38;98560.59;;;20.35;73.01
58785;BME280;44557;51.862;19.378;2023-07-22T00:11:40;98554.20;;;20.39;72.68
58785;BME280;44557;51.862;19.378;2023-07-22T00:13:41;98549.62;;;20.15;73.57
58785;BME280;44557;51.862;19.378;2023-07-22T00:15:45;98552.40;;;20.26;73.40
58785;BME280;44557;51.862;19.378;2023-07-22T00:17:46;98555.85;;;20.21;73.82
58785;BME280;44557;51.862;19.378;2023-07-22T00:19:48;98557.72;;;20.09;73.79
58785;BME280;44557;51.862;19.378;2023-07-22T00:21:49;98560.51;;;20.10;73.87
58785;BME280;44557;51.862;19.378;2023-07-22T00:23:53;98559.73;;;20.10;73.96
58785;BME280;44557;51.862;19.378;2023-07-22T00:25:54;98556.97;;;19.99;74.47
58785;BME280;44557;51.862;19.378;2023-07-22T00:27:56;98552.05;;;20.02;74.22
58785;BME280;44557;51.862;19.378;2023-07-22T00:29:58;98553.84;;;19.96;74.69
58785;BME280;44557;51.862;19.378;2023-07-22T00:32:00;98553.63;;;19.90;74.88
58785;BME280;44557;51.862;19.378;2023-07-22T00:34:02;98555.30;;;19.98;74.40
58785;BME280;44557;51.862;19.378;2023-07-22T00:36:03;98557.83;;;19.92;74.69
58785;BME280;44557;51.862;19.378;2023-07-22T00:38:05;98556.02;;;19.77;75.17
58785;BME280;44557;51.862;19.378;2023-07-22T00:40:07;98556.23;;;20.04;74.19
58785;BME280;44557;51.862;19.378;2023-07-22T00:42:13;98555.60;;;20.00;74.01
58785;BME280;44557;51.862;19.378;2023-07-22T00:44:14;98552.67;;;19.86;74.33
58785;BME280;44557;51.862;19.378;2023-07-22T00:46:16;98553.98;;;19.89;74.13
58785;BME280;44557;51.862;19.378;2023-07-22T00:48:18;98554.00;;;19.88;74.08
58785;BME280;44557;51.862;19.378;2023-07-22T00:50:21;98549.80;;;19.95;73.33
58785;BME280;44557;51.862;19.378;2023-07-22T00:52:23;98547.65;;;19.81;73.52
58785;BME280;44557;51.862;19.378;2023-07-22T00:54:24;98540.67;;;19.86;73.01
58785;BME280;44557;51.862;19.378;2023-07-22T00:56:26;98539.22;;;19.87;72.49
58785;BME280;44557;51.862;19.378;2023-07-22T00:58:28;98539.52;;;19.84;72.26
58785;BME280;44557;51.862;19.378;2023-07-22T01:00:30;98536.51;;;19.83;71.73
58785;BME280;44557;51.862;19.378;2023-07-22T01:02:32;98533.11;;;19.90;71.37
58785;BME280;44557;51.862;19.378;2023-07-22T01:04:51;98538.68;;;19.78;71.32
58785;BME280;44557;51.862;19.378;2023-07-22T01:06:54;98538.20;;;19.83;71.02
58785;BME280;44557;51.862;19.378;2023-07-22T01:08:57;98541.00;;;19.82;70.72
58785;BME280;44557;51.862;19.378;2023-07-22T01:11:03;98539.06;;;19.74;71.03
58785;BME280;44557;51.862;19.378;2023-07-22T01:13:05;98530.77;;;19.78;70.76
58785;BME280;44557;51.862;19.378;2023-07-22T01:15:08;98529.59;;;19.94;70.12
58785;BME280;44557;51.862;19.378;2023-07-22T01:17:10;98523.94;;;19.89;70.13
58785;BME280;44557;51.862;19.378;2023-07-22T01:19:17;98522.55;;;19.74;70.57
58785;BME280;44557;51.862;19.378;2023-07-22T01:21:24;98522.52;;;19.75;70.32
58785;BME280;44557;51.862;19.378;2023-07-22T01:23:26;98522.78;;;19.70;70.25
58785;BME280;44557;51.862;19.378;2023-07-22T01:25:28;98522.65;;;19.73;70.10
58785;BME280;44557;51.862;19.378;2023-07-22T01:27:29;98520.06;;;19.74;70.05
58785;BME280;44557;51.862;19.378;2023-07-22T01:29:31;98523.41;;;19.76;69.93
58785;BME280;44557;51.862;19.378;2023-07-22T01:31:38;98516.52;;;19.76;69.74
58785;BME280;44557;51.862;19.378;2023-07-22T01:33:39;98515.65;;;19.67;70.15
58785;BME280;44557;51.862;19.378;2023-07-22T01:35:41;98517.59;;;19.62;70.19
58785;BME280;44557;51.862;19.378;2023-07-22T01:37:43;98513.49;;;19.72;69.75
58785;BME280;44557;51.862;19.378;2023-07-22T01:39:45;98516.83;;;19.64;70.04
58785;BME280;44557;51.862;19.378;2023-07-22T01:41:46;98520.98;;;19.64;70.09
58785;BME280;44557;51.862;19.378;2023-07-22T01:43:49;98522.77;;;19.49;70.91
58785;BME280;44557;51.862;19.378;2023-07-22T01:45:50;98523.65;;;19.48;71.13
58785;BME280;44557;51.862;19.378;2023-07-22T01:47:52;98525.98;;;19.57;70.80
58785;BME280;44557;51.862;19.378;2023-07-22T01:49:54;98524.95;;;19.56;70.59
58785;BME280;44557;51.862;19.378;2023-07-22T01:51:55;98524.96;;;19.56;70.73
58785;BME280;44557;51.862;19.378;2023-07-22T01:53:57;98523.39;;;19.63;70.59
58785;BME280;44557;51.862;19.378;2023-07-22T01:55:59;98525.19;;;19.46;71.24
58785;BME280;44557;51.862;19.378;2023-07-22T01:58:01;98523.67;;;19.52;71.07
58785;BME280;44557;51.862;19.378;2023-07-22T02:00:03;98527.54;;;19.40;71.31
58785;BME280;44557;51.862;19.378;2023-07-22T02:02:06;98524.98;;;19.39;71.83
58785;BME280;44557;51.862;19.378;2023-07-22T02:04:08;98524.66;;;19.41;71.48
58785;BME280;44557;51.862;19.378;2023-07-22T02:06:09;98527.30;;;19.40;71.67
58785;BME280;44557;51.862;19.378;2023-07-22T02:08:11;98526.81;;;19.41;71.67
58785;BME280;44557;51.862;19.378;2023-07-22T02:10:13;98523.08;;;19.40;71.46
58785;BME280;44557;51.862;19.378;2023-07-22T02:12:14;98519.55;;;19.40;71.01
58785;BME280;44557;51.862;19.378;2023-07-22T02:14:16;98523.83;;;19.38;71.11
58785;BME280;44557;51.862;19.378;2023-07-22T02:16:18;98525.02;;;19.38;71.12
58785;BME280;44557;51.862;19.378;2023-07-22T02:18:20;98527.20;;;19.22;71.15
58785;BME280;44557;51.862;19.378;2023-07-22T02:20:22;98529.10;;;19.27;71.26
58785;BME280;44557;51.862;19.378;2023-07-22T02:22:23;98529.77;;;19.21;71.48
58785;BME280;44557;51.862;19.378;2023-07-22T02:24:25;98530.91;;;19.24;71.49
58785;BME280;44557;51.862;19.378;2023-07-22T02:26:27;98537.27;;;19.15;71.76
58785;BME280;44557;51.862;19.378;2023-07-22T02:28:28;98537.39;;;19.13;71.83
58785;BME280;44557;51.862;19.378;2023-07-22T02:30:30;98541.98;;;19.11;71.87
58785;BME280;44557;51.862;19.378;2023-07-22T02:32:39;98542.07;;;19.10;71.96
58785;BME280;44557;51.862;19.378;2023-07-22T02:34:41;98548.95;;;19.04;72.19
58785;BME280;44557;51.862;19.378;2023-07-22T02:36:43;98544.55;;;19.09;71.83
58785;BME280;44557;51.862;19.378;2023-07-22T02:38:45;98548.41;;;19.12;71.85
58785;BME280;44557;51.862;19.378;2023-07-22T02:40:46;98553.33;;;19.09;72.03
58785;BME280;44557;51.862;19.378;2023-07-22T02:42:48;98554.81;;;18.96;72.52
58785;BME280;44557;51.862;19.378;2023-07-22T02:44:50;98557.30;;;18.93;72.80
58785;BME280;44557;51.862;19.378;2023-07-22T02:46:52;98557.09;;;18.87;73.00
58785;BME280;44557;51.862;19.378;2023-07-22T02:48:54;98559.46;;;18.88;72.94
58785;BME280;44557;51.862;19.378;2023-07-22T02:51:04;98559.29;;;18.90;73.04
58785;BME280;44557;51.862;19.378;2023-07-22T02:53:06;98560.75;;;18.98;72.65
58785;BME280;44557;51.862;19.378;2023-07-22T02:55:13;98558.29;;;18.86;73.12
58785;BME280;44557;51.862;19.378;2023-07-22T02:57:15;98552.69;;;18.94;72.77
58785;BME280;44557;51.862;19.378;2023-07-22T02:59:17;98554.79;;;18.92;72.53
58785;BME280;44557;51.862;19.378;2023-07-22T03:01:18;98558.62;;;18.86;72.79
58785;BME280;44557;51.862;19.378;2023-07-22T03:03:21;98562.35;;;18.81;72.98
58785;BME280;44557;51.862;19.378;2023-07-22T03:05:22;98571.30;;;18.79;73.35
58785;BME280;44557;51.862;19.378;2023-07-22T03:07:24;98574.58;;;18.73;73.53
58785;BME280;44557;51.862;19.378;2023-07-22T03:09:27;98582.90;;;18.72;73.49
58785;BME280;44557;51.862;19.378;2023-07-22T03:11:29;98578.75;;;18.66;73.66
58785;BME280;44557;51.862;19.378;2023-07-22T03:13:31;98582.58;;;18.60;74.00
58785;BME280;44557;51.862;19.378;2023-07-22T03:15:34;98584.34;;;18.59;73.55
58785;BME280;44557;51.862;19.378;2023-07-22T03:17:36;98581.27;;;18.57;73.60
58785;BME280;44557;51.862;19.378;2023-07-22T03:19:38;98575.05;;;18.62;73.33
58785;BME280;44557;51.862;19.378;2023-07-22T03:21:39;98575.98;;;18.71;73.16
58785;BME280;44557;51.862;19.378;2023-07-22T03:23:41;98576.42;;;18.61;73.23
58785;BME280;44557;51.862;19.378;2023-07-22T03:25:42;98580.17;;;18.67;72.91
58785;BME280;44557;51.862;19.378;2023-07-22T03:27:45;98582.67;;;18.65;73.08
58785;BME280;44557;51.862;19.378;2023-07-22T03:29:47;98587.58;;;18.62;73.09
58785;BME280;44557;51.862;19.378;2023-07-22T03:31:49;98592.40;;;18.53;73.49
58785;BME280;44557;51.862;19.378;2023-07-22T03:33:50;98591.21;;;18.51;73.15
58785;BME280;44557;51.862;19.378;2023-07-22T03:35:52;98591.86;;;18.50;73.09
58785;BME280;44557;51.862;19.378;2023-07-22T03:37:53;98594.73;;;18.43;73.27
58785;BME280;44557;51.862;19.378;2023-07-22T03:39:56;98596.14;;;18.47;73.15
58785;BME280;44557;51.862;19.378;2023-07-22T03:41:57;98589.43;;;18.48;72.95
58785;BME280;44557;51.862;19.378;2023-07-22T03:43:59;98588.67;;;18.51;72.71
58785;BME280;44557;51.862;19.378;2023-07-22T03:46:01;98587.98;;;18.40;73.01
58785;BME280;44557;51.862;19.378;2023-07-22T03:48:03;98586.31;;;18.42;73.15
58785;BME280;44557;51.862;19.378;2023-07-22T03:50:05;98592.33;;;18.45;72.67
58785;BME280;44557;51.862;19.378;2023-07-22T03:52:07;98594.82;;;18.44;72.74
58785;BME280;44557;51.862;19.378;2023-07-22T03:54:09;98600.17;;;18.49;72.89
58785;BME280;44557;51.862;19.378;2023-07-22T03:56:11;98602.23;;;18.56;72.49
58785;BME280;44557;51.862;19.378;2023-07-22T03:58:13;98603.39;;;18.40;73.34
58785;BME280;44557;51.862;19.378;2023-07-22T04:00:15;98606.07;;;18.41;73.26
58785;BME280;44557;51.862;19.378;2023-07-22T04:02:16;98608.79;;;18.40;73.16
58785;BME280;44557;51.862;19.378;2023-07-22T04:04:18;98602.75;;;18.31;73.66
58785;BME280;44557;51.862;19.378;2023-07-22T04:06:20;98606.07;;;18.34;73.57
58785;BME280;44557;51.862;19.378;2023-07-22T04:08:22;98606.14;;;18.42;73.44
58785;BME280;44557;51.862;19.378;2023-07-22T04:10:24;98608.52;;;18.35;73.54
58785;BME280;44557;51.862;19.378;2023-07-22T04:12:25;98604.84;;;18.45;73.60
58785;BME280;44557;51.862;19.378;2023-07-22T04:14:27;98605.31;;;18.53;73.28
58785;BME280;44557;51.862;19.378;2023-07-22T04:16:29;98610.08;;;18.59;72.83
58785;BME280;44557;51.862;19.378;2023-07-22T04:18:31;98606.30;;;18.57;72.73
58785;BME280;44557;51.862;19.378;2023-07-22T04:20:35;98613.33;;;18.50;72.84
58785;BME280;44557;51.862;19.378;2023-07-22T04:22:37;98610.10;;;18.58;72.90
58785;BME280;44557;51.862;19.378;2023-07-22T04:24:39;98614.48;;;18.59;72.98
58785;BME280;44557;51.862;19.378;2023-07-22T04:26:44;98615.45;;;18.69;72.57
58785;BME280;44557;51.862;19.378;2023-07-22T04:28:46;98616.03;;;18.56;73.02
58785;BME280;44557;51.862;19.378;2023-07-22T04:30:55;98610.27;;;18.57;72.91
58785;BME280;44557;51.862;19.378;2023-07-22T04:32:57;98607.17;;;18.62;73.25
58785;BME280;44557;51.862;19.378;2023-07-22T04:35:08;98606.52;;;18.63;72.95
58785;BME280;44557;51.862;19.378;2023-07-22T04:37:10;98615.41;;;18.55;72.99
58785;BME280;44557;51.862;19.378;2023-07-22T04:39:11;98618.86;;;18.53;73.09
58785;BME280;44557;51.862;19.378;2023-07-22T04:41:14;98622.67;;;18.47;73.65
58785;BME280;44557;51.862;19.378;2023-07-22T04:43:16;98623.59;;;18.49;73.54
58785;BME280;44557;51.862;19.378;2023-07-22T04:45:18;98622.30;;;18.50;73.32
58785;BME280;44557;51.862;19.378;2023-07-22T04:47:20;98623.64;;;18.53;73.61
58785;BME280;44557;51.862;19.378;2023-07-22T04:49:25;98624.98;;;18.48;73.55
58785;BME280;44557;51.862;19.378;2023-07-22T04:51:27;98625.91;;;18.42;74.09
58785;BME280;44557;51.862;19.378;2023-07-22T04:53:29;98627.24;;;18.44;73.60
58785;BME280;44557;51.862;19.378;2023-07-22T04:55:31;98630.48;;;18.39;74.16
58785;BME280;44557;51.862;19.378;2023-07-22T04:57:41;98629.73;;;18.49;73.94
58785;BME280;44557;51.862;19.378;2023-07-22T04:59:43;98637.89;;;18.73;72.97
58785;BME280;44557;51.862;19.378;2023-07-22T05:01:45;98638.96;;;18.83;72.60
58785;BME280;44557;51.862;19.378;2023-07-22T05:03:47;98640.02;;;18.88;72.64
58785;BME280;44557;51.862;19.378;2023-07-22T05:05:49;98640.16;;;18.88;72.46
58785;BME280;44557;51.862;19.378;2023-07-22T05:07:50;98642.34;;;18.81;72.48
58785;BME280;44557;51.862;19.378;2023-07-22T05:10:06;98649.11;;;18.75;72.78
58785;BME280;44557;51.862;19.378;2023-07-22T05:12:13;98648.88;;;18.74;72.75
58785;BME280;44557;51.862;19.378;2023-07-22T05:14:18;98652.45;;;18.81;72.70
58785;BME280;44557;51.862;19.378;2023-07-22T05:16:20;98654.54;;;19.05;71.81
58785;BME280;44557;51.862;19.378;2023-07-22T05:18:22;98655.44;;;19.03;71.94
58785;BME280;44557;51.862;19.378;2023-07-22T05:20:24;98654.78;;;19.09;71.91
58785;BME280;44557;51.862;19.378;2023-07-22T05:22:25;98659.06;;;19.01;72.18
58785;BME280;44557;51.862;19.378;2023-07-22T05:24:27;98662.73;;;19.00;72.25
58785;BME280;44557;51.862;19.378;2023-07-22T05:26:29;98658.59;;;19.05;71.95
58785;BME280;44557;51.862;19.378;2023-07-22T05:28:32;98661.90;;;19.08;71.19
58785;BME280;44557;51.862;19.378;2023-07-22T05:30:34;98664.52;;;19.08;71.52
58785;BME280;44557;51.862;19.378;2023-07-22T05:32:36;98658.94;;;19.15;71.01
58785;BME280;44557;51.862;19.378;2023-07-22T05:34:37;98660.56;;;19.19;70.76
58785;BME280;44557;51.862;19.378;2023-07-22T05:36:40;98662.96;;;19.29;70.45
58785;BME280;44557;51.862;19.378;2023-07-22T05:38:41;98663.11;;;19.36;70.27
58785;BME280;44557;51.862;19.378;2023-07-22T05:40:43;98667.08;;;19.43;69.95
58785;BME280;44557;51.862;19.378;2023-07-22T05:42:45;98667.16;;;19.38;70.42
58785;BME280;44557;51.862;19.378;2023-07-22T05:44:48;98668.34;;;19.45;69.97
58785;BME280;44557;51.862;19.378;2023-07-22T05:46:49;98667.58;;;19.47;69.41
58785;BME280;44557;51.862;19.378;2023-07-22T05:48:51;98666.35;;;19.55;68.83
58785;BME280;44557;51.862;19.378;2023-07-22T05:50:53;98670.47;;;19.56;68.89
58785;BME280;44557;51.862;19.378;2023-07-22T05:52:54;98669.33;;;19.69;68.70
58785;BME280;44557;51.862;19.378;2023-07-22T05:54:59;98671.36;;;19.85;68.15
58785;BME280;44557;51.862;19.378;2023-07-22T05:57:00;98662.13;;;19.88;67.96
58785;BME280;44557;51.862;19.378;2023-07-22T05:59:02;98666.27;;;20.08;67.46
58785;BME280;44557;51.862;19.378;2023-07-22T06:01:04;98663.36;;;20.28;66.66
58785;BME280;44557;51.862;19.378;2023-07-22T06:03:06;98665.27;;;20.37;65.92
58785;BME280;44557;51.862;19.378;2023-07-22T06:05:08;98661.17;;;20.30;65.71
58785;BME280;44557;51.862;19.378;2023-07-22T06:07:10;98660.86;;;20.38;65.21
58785;BME280;44557;51.862;19.378;2023-07-22T06:09:11;98662.71;;;20.54;64.88
58785;BME280;44557;51.862;19.378;2023-07-22T06:11:13;98661.36;;;20.53;64.63
58785;BME280;44557;51.862;19.378;2023-07-22T06:13:15;98665.07;;;20.72;64.03
58785;BME280;44557;51.862;19.378;2023-07-22T06:15:16;98670.63;;;20.89;62.82
58785;BME280;44557;51.862;19.378;2023-07-22T06:17:18;98676.02;;;20.68;62.96
58785;BME280;44557;51.862;19.378;2023-07-22T06:19:21;98677.10;;;20.49;63.08
58785;BME280;44557;51.862;19.378;2023-07-22T06:21:25;98680.11;;;20.79;62.94
58785;BME280;44557;51.862;19.378;2023-07-22T06:23:26;98677.88;;;20.90;61.77
58785;BME280;44557;51.862;19.378;2023-07-22T06:25:28;98681.45;;;21.11;61.22
58785;BME280;44557;51.862;19.378;2023-07-22T06:27:30;98674.63;;;21.41;60.51
58785;BME280;44557;51.862;19.378;2023-07-22T06:29:32;98674.08;;;21.33;59.51
58785;BME280;44557;51.862;19.378;2023-07-22T06:31:33;98675.66;;;21.30;59.45
58785;BME280;44557;51.862;19.378;2023-07-22T06:33:35;98669.90;;;21.24;59.00
58785;BME280;44557;51.862;19.378;2023-07-22T06:35:37;98667.34;;;21.44;58.74
58785;BME280;44557;51.862;19.378;2023-07-22T06:37:39;98669.84;;;21.40;58.59
58785;BME280;44557;51.862;19.378;2023-07-22T06:39:41;98677.31;;;21.60;58.09
58785;BME280;44557;51.862;19.378;2023-07-22T06:41:43;98684.34;;;21.78;57.51
58785;BME280;44557;51.862;19.378;2023-07-22T06:43:45;98685.87;;;21.80;57.51
58785;BME280;44557;51.862;19.378;2023-07-22T06:45:47;98687.64;;;21.76;57.63
58785;BME280;44557;51.862;19.378;2023-07-22T06:47:49;98687.40;;;22.03;56.50
58785;BME280;44557;51.862;19.378;2023-07-22T06:49:50;98691.39;;;22.04;56.70
58785;BME280;44557;51.862;19.378;2023-07-22T06:51:52;98696.02;;;22.04;56.91
58785;BME280;44557;51.862;19.378;2023-07-22T06:53:54;98694.65;;;22.27;56.08
58785;BME280;44557;51.862;19.378;2023-07-22T06:55:55;98696.57;;;22.21;55.36
58785;BME280;44557;51.862;19.378;2023-07-22T06:57:57;98700.23;;;22.31;55.21
58785;BME280;44557;51.862;19.378;2023-07-22T06:59:59;98701.74;;;22.47;55.43
58785;BME280;44557;51.862;19.378;2023-07-22T07:02:04;98702.39;;;22.64;53.98
58785;BME280;44557;51.862;19.378;2023-07-22T07:04:06;98700.09;;;22.57;54.15
58785;BME280;44557;51.862;19.378;2023-07-22T07:06:08;98699.11;;;22.81;53.43
58785;BME280;44557;51.862;19.378;2023-07-22T07:08:09;98696.63;;;22.69;52.89
58785;BME280;44557;51.862;19.378;2023-07-22T07:10:14;98700.43;;;22.97;52.53
58785;BME280;44557;51.862;19.378;2023-07-22T07:12:16;98695.00;;;22.99;52.49
58785;BME280;44557;51.862;19.378;2023-07-22T07:14:18;98703.49;;;23.13;52.60
58785;BME280;44557;51.862;19.378;2023-07-22T07:16:26;98706.23;;;23.10;52.04
58785;BME280;44557;51.862;19.378;2023-07-22T07:18:28;98703.20;;;23.12;52.31
58785;BME280;44557;51.862;19.378;2023-07-22T07:20:30;98709.13;;;22.93;52.06
58785;BME280;44557;51.862;19.378;2023-07-22T07:22:32;98712.24;;;22.88;52.78
58785;BME280;44557;51.862;19.378;2023-07-22T07:24:33;98711.96;;;23.12;51.75
58785;BME280;44557;51.862;19.378;2023-07-22T07:26:35;98708.75;;;23.39;51.48
58785;BME280;44557;51.862;19.378;2023-07-22T07:28:37;98711.07;;;23.34;50.69
58785;BME280;44557;51.862;19.378;2023-07-22T07:30:38;98708.05;;;23.64;50.57
58785;BME280;44557;51.862;19.378;2023-07-22T07:32:42;98705.63;;;23.90;49.85
58785;BME280;44557;51.862;19.378;2023-07-22T07:34:43;98716.32;;;24.00;49.38
58785;BME280;44557;51.862;19.378;2023-07-22T07:36:45;98714.27;;;24.08;48.00
58785;BME280;44557;51.862;19.378;2023-07-22T07:38:46;98719.90;;;24.06;48.26
58785;BME280;44557;51.862;19.378;2023-07-22T07:40:53;98723.30;;;24.43;47.48
58785;BME280;44557;51.862;19.378;2023-07-22T07:42:55;98725.34;;;24.67;46.82
58785;BME280;44557;51.862;19.378;2023-07-22T07:44:57;98724.80;;;24.42;47.05
58785;BME280;44557;51.862;19.378;2023-07-22T07:46:59;98721.98;;;24.72;47.03
58785;BME280;44557;51.862;19.378;2023-07-22T07:49:01;98729.29;;;24.84;46.57
58785;BME280;44557;51.862;19.378;2023-07-22T07:51:02;98727.39;;;25.00;45.72
58785;BME280;44557;51.862;19.378;2023-07-22T07:53:05;98728.89;;;25.01;45.16
58785;BME280;44557;51.862;19.378;2023-07-22T07:55:07;98732.96;;;24.66;45.97
58785;BME280;44557;51.862;19.378;2023-07-22T07:57:09;98732.34;;;25.06;45.20
58785;BME280;44557;51.862;19.378;2023-07-22T07:59:11;98733.73;;;24.77;45.46
58785;BME280;44557;51.862;19.378;2023-07-22T08:01:13;98737.22;;;24.71;45.62
58785;BME280;44557;51.862;19.378;2023-07-22T08:03:15;98734.63;;;24.79;45.50
58785;BME280;44557;51.862;19.378;2023-07-22T08:05:18;98736.42;;;24.54;46.23
58785;BME280;44557;51.862;19.378;2023-07-22T08:07:19;98742.45;;;24.22;47.32
58785;BME280;44557;51.862;19.378;2023-07-22T08:09:22;98748.16;;;23.76;47.50
58785;BME280;44557;51.862;19.378;2023-07-22T08:11:24;98748.46;;;23.70;48.39
58785;BME280;44557;51.862;19.378;2023-07-22T08:13:26;98757.46;;;23.09;49.55
58785;BME280;44557;51.862;19.378;2023-07-22T08:15:28;98755.98;;;23.28;50.07
58785;BME280;44557;51.862;19.378;2023-07-22T08:17:31;98755.02;;;23.55;49.03
58785;BME280;44557;51.862;19.378;2023-07-22T08:19:33;98758.52;;;23.71;48.33
58785;BME280;44557;51.862;19.378;2023-07-22T08:21:35;98757.23;;;23.59;48.42
58785;BME280;44557;51.862;19.378;2023-07-22T08:23:36;98755.53;;;24.24;47.08
58785;BME280;44557;51.862;19.378;2023-07-22T08:25:38;98759.44;;;24.08;47.00
58785;BME280;44557;51.862;19.378;2023-07-22T08:27:40;98763.20;;;23.47;47.75
58785;BME280;44557;51.862;19.378;2023-07-22T08:29:42;98757.30;;;23.77;47.76
58785;BME280;44557;51.862;19.378;2023-07-22T08:31:43;98762.94;;;24.00;46.64
58785;BME280;44557;51.862;19.378;2023-07-22T08:33:45;98762.09;;;24.45;45.25
58785;BME280;44557;51.862;19.378;2023-07-22T08:35:47;98761.80;;;24.51;44.87
58785;BME280;44557;51.862;19.378;2023-07-22T08:37:49;98759.65;;;24.41;45.58
58785;BME280;44557;51.862;19.378;2023-07-22T08:39:51;98755.95;;;24.22;44.42
58785;BME280;44557;51.862;19.378;2023-07-22T08:41:54;98757.02;;;24.01;45.20
58785;BME280;44557;51.862;19.378;2023-07-22T08:43:59;98756.83;;;23.92;45.96
58785;BME280;44557;51.862;19.378;2023-07-22T08:46:05;98761.56;;;24.18;46.55
58785;BME280;44557;51.862;19.378;2023-07-22T08:48:09;98763.48;;;23.67;47.80
58785;BME280;44557;51.862;19.378;2023-07-22T08:50:16;98763.77;;;24.45;46.44
58785;BME280;44557;51.862;19.378;2023-07-22T08:52:22;98768.92;;;24.36;45.68
58785;BME280;44557;51.862;19.378;2023-07-22T08:54:24;98770.83;;;23.76;46.44
58785;BME280;44557;51.862;19.378;2023-07-22T08:56:26;98770.87;;;23.98;45.92
58785;BME280;44557;51.862;19.378;2023-07-22T08:58:29;98768.92;;;24.31;45.85
58785;BME280;44557;51.862;19.378;2023-07-22T09:00:33;98767.17;;;24.31;45.74
58785;BME280;44557;51.862;19.378;2023-07-22T09:02:35;98770.69;;;24.38;45.60
58785;BME280;44557;51.862;19.378;2023-07-22T09:04:38;98773.55;;;24.72;44.59
58785;BME280;44557;51.862;19.378;2023-07-22T09:07:17;98770.91;;;25.43;43.13
58785;BME280;44557;51.862;19.378;2023-07-22T09:09:19;98780.41;;;25.40;47.80
58785;BME280;44557;51.862;19.378;2023-07-22T09:11:23;98779.77;;;25.19;46.85
58785;BME280;44557;51.862;19.378;2023-07-22T09:13:26;98777.97;;;24.59;45.64
58785;BME280;44557;51.862;19.378;2023-07-22T09:15:29;98788.23;;;24.36;45.38
58785;BME280;44557;51.862;19.378;2023-07-22T09:17:31;98779.36;;;23.81;45.73
58785;BME280;44557;51.862;19.378;2023-07-22T09:19:33;98786.44;;;23.55;46.47
58785;BME280;44557;51.862;19.378;2023-07-22T09:21:35;98790.87;;;23.73;46.48
58785;BME280;44557;51.862;19.378;2023-07-22T09:23:38;98791.77;;;24.33;45.31
58785;BME280;44557;51.862;19.378;2023-07-22T09:25:41;98785.78;;;24.49;44.40
58785;BME280;44557;51.862;19.378;2023-07-22T09:27:43;98788.40;;;24.33;44.40
58785;BME280;44557;51.862;19.378;2023-07-22T09:29:45;98792.86;;;23.84;45.38
58785;BME280;44557;51.862;19.378;2023-07-22T09:31:53;98800.71;;;23.42;45.60
58785;BME280;44557;51.862;19.378;2023-07-22T09:34:09;98802.54;;;23.40;45.40
58785;BME280;44557;51.862;19.378;2023-07-22T09:36:11;98799.86;;;23.26;44.63
58785;BME280;44557;51.862;19.378;2023-07-22T09:38:13;98802.02;;;23.58;44.36
58785;BME280;44557;51.862;19.378;2023-07-22T09:40:28;98801.88;;;23.68;43.17
58785;BME280;44557;51.862;19.378;2023-07-22T09:42:30;98795.90;;;23.82;43.26
58785;BME280;44557;51.862;19.378;2023-07-22T09:44:32;98799.98;;;24.13;42.94
58785;BME280;44557;51.862;19.378;2023-07-22T09:46:34;98799.88;;;23.91;43.16
58785;BME280;44557;51.862;19.378;2023-07-22T09:48:43;98811.16;;;23.66;43.61
58785;BME280;44557;51.862;19.378;2023-07-22T09:50:46;98816.41;;;23.38;44.06
58785;BME280;44557;51.862;19.378;2023-07-22T09:52:57;98816.58;;;23.35;45.12
58785;BME280;44557;51.862;19.378;2023-07-22T09:54:59;98813.84;;;23.32;45.69
58785;BME280;44557;51.862;19.378;2023-07-22T09:57:04;98813.93;;;23.56;45.18
58785;BME280;44557;51.862;19.378;2023-07-22T09:59:06;98808.88;;;23.65;44.87
58785;BME280;44557;51.862;19.378;2023-07-22T10:01:10;98810.14;;;23.41;44.99
58785;BME280;44557;51.862;19.378;2023-07-22T10:03:15;98815.91;;;23.33;45.55
58785;BME280;44557;51.862;19.378;2023-07-22T10:05:19;98816.17;;;23.29;45.17
58785;BME280;44557;51.862;19.378;2023-07-22T10:07:21;98807.82;;;23.35;45.07
58785;BME280;44557;51.862;19.378;2023-07-22T10:09:25;98813.52;;;23.15;43.97
58785;BME280;44557;51.862;19.378;2023-07-22T10:11:30;98809.98;;;23.26;43.85
58785;BME280;44557;51.862;19.378;2023-07-22T10:13:33;98813.52;;;23.62;43.30
58785;BME280;44557;51.862;19.378;2023-07-22T10:15:36;98805.90;;;23.78;42.55
58785;BME280;44557;51.862;19.378;2023-07-22T10:17:42;98808.27;;;24.02;42.67
58785;BME280;44557;51.862;19.378;2023-07-22T10:19:44;98803.05;;;24.59;42.34
58785;BME280;44557;51.862;19.378;2023-07-22T10:21:46;98806.84;;;24.83;40.58
58785;BME280;44557;51.862;19.378;2023-07-22T10:23:49;98809.91;;;24.61;40.44
58785;BME280;44557;51.862;19.378;2023-07-22T10:25:53;98806.68;;;24.42;40.87
58785;BME280;44557;51.862;19.378;2023-07-22T10:27:56;98799.73;;;24.36;40.80
58785;BME280;44557;51.862;19.378;2023-07-22T10:29:58;98804.15;;;24.72;39.90
58785;BME280;44557;51.862;19.378;2023-07-22T10:32:00;98806.77;;;24.90;39.58
58785;BME280;44557;51.862;19.378;2023-07-22T10:34:03;98809.77;;;24.70;40.10
58785;BME280;44557;51.862;19.378;2023-07-22T10:36:09;98811.55;;;24.19;40.61
58785;BME280;44557;51.862;19.378;2023-07-22T10:38:15;98811.70;;;23.83;41.90
58785;BME280;44557;51.862;19.378;2023-07-22T10:40:28;98817.30;;;23.52;41.97
58785;BME280;44557;51.862;19.378;2023-07-22T10:42:31;98823.27;;;23.59;42.21